Scampton, United Kingdom
Current Conditions -  °F | °C
As of 3:50 PM on Wednesday 28 Jan 2015 (Local Time) from EGXP Reporting Station
Scattered Clouds Scattered Clouds  
Wind Chill: -4°   Ceiling: Unl
Heat Index:   Visibility: 6mi
Dew Point: -1°   Wind: 26mph
Humidity: 75%   Direction: 270°W
Pressure: 29.38"   Gusts: 38mph
Location:  53.3°N, 0.58°W
Report Text: EGXP 281550Z AUTO 27023G33KT 9999 // FEW025/// SCT029/// 03/M01 Q0995
Loading
Personal Weather Stations






























Interactive Weather Map New forecast layout! Learn more

10-Day Weather Forecast

Advertisements
Track Severe Weather on mobile